Murska Sobota, Slovenia
Current Conditions -  °F | °C
As of 9:00 AM on Monday 24 Nov 2014 (Local Time) from LJMB Reporting Station
Haze Haze  
Wind Chill: 36°   Ceiling: 800
Heat Index: 39°   Visibility: 2.5mi
Dew Point: 36°   Wind: 5mph
Humidity: 87%   Direction: 180°S
Pressure: 30.3"   Gusts: NA
Location:  46.66°N, 16.14°E
Report Text: LJMB 240800Z 18004KT 4000 BR OVC008 04/02 Q1026
Loading
Personal Weather Stations






























Interactive Weather Map New forecast layout! Learn more

10-Day Weather Forecast

Advertisements
Track Severe Weather on mobile